Time;durP1;ratioP1;P1;durP2;ratioP2;P2;SDS_P1;SDS_P2;PMS_P1;PMS_P2;Temp;Humidity;BMP_temperature;BMP_pressure;BME280_temperature;BME280_humidity;BME280_pressure;Samples;Min_cycle;Max_cycle;Signal;HPM_P1;HPM_P2
2021/07/20 00:01:45;;;;;;;11.52;6.78;;;15.60;99.90;;;;;;5126454;28;20536;-67
2021/07/20 00:04:11;;;;;;;11.07;6.50;;;15.70;99.90;;;;;;5127740;28;20059;-66
2021/07/20 00:06:37;;;;;;;12.98;7.05;;;15.70;99.90;;;;;;5124266;28;20046;-66
2021/07/20 00:09:05;;;;;;;9.02;5.80;;;15.70;99.90;;;;;;5137679;28;20043;-66
2021/07/20 00:11:31;;;;;;;9.57;5.97;;;15.70;99.90;;;;;;5129586;28;20122;-66
2021/07/20 00:13:57;;;;;;;11.48;5.90;;;15.70;99.90;;;;;;5128174;27;20050;-67
2021/07/20 00:16:22;;;;;;;12.75;6.53;;;15.80;99.90;;;;;;5133849;27;20506;-66
2021/07/20 00:18:48;;;;;;;9.20;6.10;;;15.80;99.90;;;;;;5146978;27;20044;-67
2021/07/20 00:21:14;;;;;;;9.20;6.05;;;15.80;99.90;;;;;;5144121;27;20035;-66
2021/07/20 00:23:39;;;;;;;10.35;6.65;;;15.80;99.90;;;;;;5137706;27;20043;-66
2021/07/20 00:26:06;;;;;;;12.52;5.72;;;15.80;99.90;;;;;;5142962;27;20043;-67
2021/07/20 00:28:32;;;;;;;11.55;6.10;;;15.80;99.90;;;;;;5141842;27;20050;-66
2021/07/20 00:30:58;;;;;;;11.98;6.13;;;15.80;99.90;;;;;;5128841;27;20128;-66
2021/07/20 00:33:24;;;;;;;10.73;6.45;;;15.80;99.90;;;;;;5128497;28;20039;-67
2021/07/20 00:35:50;;;;;;;9.13;5.90;;;15.80;99.90;;;;;;5130459;27;20578;-66
2021/07/20 00:38:17;;;;;;;14.05;7.00;;;15.80;99.90;;;;;;5139058;27;20038;-66
2021/07/20 00:40:43;;;;;;;8.10;6.13;;;15.80;99.90;;;;;;5146175;27;20045;-66
2021/07/20 00:43:09;;;;;;;7.15;5.38;;;15.80;99.90;;;;;;5146775;27;20089;-66
2021/07/20 00:45:36;;;;;;;9.07;6.20;;;15.80;99.90;;;;;;5141930;27;20053;-66
2021/07/20 00:48:03;;;;;;;12.05;6.63;;;15.80;99.90;;;;;;5129749;27;20130;-66
2021/07/20 00:50:37;;;;;;;10.60;6.03;;;15.80;99.90;;;;;;5130953;27;20047;-66
2021/07/20 00:53:05;;;;;;;8.73;6.03;;;15.80;99.90;;;;;;5145165;27;20553;-66
2021/07/20 00:55:36;;;;;;;12.20;6.30;;;15.80;99.90;;;;;;5144553;27;20043;-66
2021/07/20 00:58:07;;;;;;;9.20;6.65;;;15.80;99.90;;;;;;5135827;27;20047;-66
2021/07/20 01:00:34;;;;;;;9.40;6.75;;;15.80;99.90;;;;;;5143099;27;20475;-66
2021/07/20 01:03:00;;;;;;;9.02;5.95;;;15.80;99.90;;;;;;5131193;27;20538;-66
2021/07/20 01:05:27;;;;;;;11.13;6.30;;;15.80;99.90;;;;;;5127590;27;20455;-66
2021/07/20 01:07:54;;;;;;;13.13;5.82;;;15.80;99.90;;;;;;5136781;27;20048;-67
2021/07/20 01:10:22;;;;;;;13.35;6.63;;;15.80;99.90;;;;;;5134096;27;20048;-66
2021/07/20 01:12:49;;;;;;;9.38;6.13;;;15.80;99.90;;;;;;5136980;27;20043;-66
2021/07/20 01:15:17;;;;;;;13.52;6.28;;;15.80;99.90;;;;;;5133755;27;20039;-66
2021/07/20 01:17:45;;;;;;;9.77;5.90;;;15.70;99.90;;;;;;5137441;27;20054;-66
2021/07/20 01:20:16;;;;;;;10.65;6.53;;;15.70;99.90;;;;;;5140602;27;20039;-66
2021/07/20 01:22:52;;;;;;;12.15;7.10;;;15.70;99.90;;;;;;5138014;27;20051;-66
2021/07/20 01:25:19;;;;;;;10.85;6.50;;;15.70;99.90;;;;;;5133991;27;20043;-66
2021/07/20 01:27:56;;;;;;;8.43;6.07;;;15.70;99.90;;;;;;5134856;27;20040;-66
2021/07/20 01:30:22;;;;;;;10.65;6.80;;;15.80;99.90;;;;;;5126627;27;20046;-66
2021/07/20 01:32:49;;;;;;;12.70;6.93;;;15.70;99.90;;;;;;5142106;27;20130;-66
2021/07/20 01:35:16;;;;;;;13.10;6.97;;;15.70;99.90;;;;;;5142599;27;20102;-67
2021/07/20 01:37:44;;;;;;;12.13;6.70;;;15.70;99.90;;;;;;5130404;27;20447;-67
2021/07/20 01:40:13;;;;;;;13.88;7.18;;;15.70;99.90;;;;;;5140661;27;20067;-67
2021/07/20 01:42:44;;;;;;;19.10;6.60;;;15.70;99.90;;;;;;5145267;27;20047;-66
2021/07/20 01:45:10;;;;;;;13.80;7.80;;;15.70;99.90;;;;;;5139294;27;20054;-67
2021/07/20 01:47:38;;;;;;;13.35;6.53;;;15.80;99.90;;;;;;5122121;27;20130;-67
2021/07/20 01:50:05;;;;;;;10.85;7.53;;;15.80;99.90;;;;;;5133470;27;20268;-67
2021/07/20 01:52:32;;;;;;;12.10;6.10;;;15.80;99.90;;;;;;5134552;27;20122;-67
2021/07/20 01:54:59;;;;;;;10.02;6.18;;;15.80;99.90;;;;;;5131662;27;20064;-67
2021/07/20 01:57:25;;;;;;;13.30;7.72;;;15.80;99.90;;;;;;5147065;27;20047;-67
2021/07/20 01:59:52;;;;;;;11.40;7.20;;;15.80;99.90;;;;;;5144770;27;20039;-66
2021/07/20 02:02:30;;;;;;;12.77;6.55;;;15.80;99.90;;;;;;5133540;27;20103;-67
2021/07/20 02:10:14;;;;;;;12.05;6.63;;;15.80;99.90;;;;;;5139082;27;20043;-66
2021/07/20 02:12:43;;;;;;;12.32;7.15;;;15.80;99.90;;;;;;5140640;27;20035;-66
2021/07/20 02:15:09;;;;;;;10.82;6.47;;;15.70;99.90;;;;;;5140326;27;20052;-66
2021/07/20 02:17:37;;;;;;;13.27;7.10;;;15.70;99.90;;;;;;5126441;28;20048;-66
2021/07/20 02:20:13;;;;;;;13.25;6.85;;;15.80;99.90;;;;;;5139615;27;20039;-66
2021/07/20 02:22:40;;;;;;;10.38;6.80;;;15.70;99.90;;;;;;5146129;27;20043;-66
2021/07/20 02:25:08;;;;;;;21.30;8.38;;;15.70;99.90;;;;;;5126783;27;20100;-67
2021/07/20 02:27:34;;;;;;;;;;;15.80;99.90;;;;;;5145924;27;20047;-65
2021/07/20 02:30:11;;;;;;;12.30;7.55;;;15.80;99.90;;;;;;5145661;27;19926;-67
2021/07/20 02:32:38;;;;;;;11.25;7.40;;;15.80;99.90;;;;;;5130916;27;20546;-67
2021/07/20 02:35:06;;;;;;;11.07;7.00;;;15.80;99.90;;;;;;5143113;27;20074;-66
2021/07/20 02:37:34;;;;;;;12.63;8.15;;;15.80;99.90;;;;;;5141871;27;20049;-67
2021/07/20 02:40:00;;;;;;;;;;;15.80;99.90;;;;;;5143671;27;20089;-67
2021/07/20 02:42:27;;;;;;;13.52;7.22;;;15.80;99.90;;;;;;5145119;27;20418;-67
2021/07/20 02:44:54;;;;;;;13.73;8.05;;;15.80;99.90;;;;;;5134873;27;20450;-67
2021/07/20 02:47:21;;;;;;;18.52;7.88;;;15.80;99.90;;;;;;5143862;27;20486;-67
2021/07/20 02:49:49;;;;;;;12.18;6.97;;;15.70;99.90;;;;;;5135319;27;20042;-67
2021/07/20 02:52:15;;;;;;;15.95;7.97;;;15.70;99.90;;;;;;5132329;27;20067;-67
2021/07/20 02:54:42;;;;;;;13.52;8.18;;;15.70;99.90;;;;;;5141415;27;20612;-67
2021/07/20 02:57:09;;;;;;;11.95;7.50;;;15.70;99.90;;;;;;5143642;27;20372;-67
2021/07/20 02:59:36;;;;;;;16.83;8.50;;;15.70;99.90;;;;;;5139732;27;20074;-67
2021/07/20 03:02:04;;;;;;;12.95;8.32;;;15.60;99.90;;;;;;5135136;27;20046;-66
2021/07/20 03:04:30;;;;;;;13.90;8.13;;;15.60;99.90;;;;;;5132625;27;20079;-66
2021/07/20 03:07:00;;;;;;;13.18;8.30;;;15.60;99.90;;;;;;5141486;27;20127;-66
2021/07/20 03:09:28;;;;;;;14.68;8.90;;;15.60;99.90;;;;;;5135056;27;20039;-66
2021/07/20 03:12:02;;;;;;;15.52;7.70;;;15.60;99.90;;;;;;5136715;27;20082;-66
2021/07/20 03:14:29;;;;;;;16.25;7.93;;;15.60;99.90;;;;;;5127467;27;20241;-66
2021/07/20 03:16:56;;;;;;;16.20;8.93;;;15.60;99.90;;;;;;5132452;27;20043;-66
2021/07/20 03:19:28;;;;;;;12.75;8.48;;;15.60;99.90;;;;;;5131694;27;20124;-66
2021/07/20 03:21:57;;;;;;;13.30;8.13;;;15.50;99.90;;;;;;5138307;27;20039;-66
2021/07/20 03:24:24;;;;;;;13.52;8.75;;;15.60;99.90;;;;;;5138041;27;20050;-67
2021/07/20 03:26:52;;;;;;;12.40;8.43;;;15.60;99.90;;;;;;5133791;27;20053;-67
2021/07/20 03:29:20;;;;;;;17.50;8.98;;;15.50;99.90;;;;;;5135629;27;20054;-66
2021/07/20 03:31:47;;;;;;;13.60;8.52;;;15.50;99.90;;;;;;5126629;27;20050;-66
2021/07/20 03:34:13;;;;;;;14.60;8.30;;;15.50;99.90;;;;;;5132033;27;20038;-66
2021/07/20 03:36:40;;;;;;;13.68;8.32;;;15.50;99.90;;;;;;5134440;27;20043;-66
2021/07/20 03:39:06;;;;;;;12.85;8.98;;;15.50;99.90;;;;;;5139599;27;20197;-66
2021/07/20 03:41:33;;;;;;;14.43;8.43;;;15.50;99.90;;;;;;5144787;27;20050;-66
2021/07/20 03:44:01;;;;;;;13.07;8.60;;;15.50;99.90;;;;;;5132322;27;20044;-66
2021/07/20 03:46:27;;;;;;;14.02;7.80;;;15.50;99.90;;;;;;5141301;27;20072;-66
2021/07/20 03:48:54;;;;;;;10.90;7.53;;;15.50;99.90;;;;;;5134902;27;20048;-66
2021/07/20 03:51:22;;;;;;;15.05;7.78;;;15.60;99.90;;;;;;5129801;27;20047;-67
2021/07/20 03:53:49;;;;;;;13.18;8.80;;;15.60;99.90;;;;;;5135190;27;20096;-67
2021/07/20 03:56:16;;;;;;;12.63;7.97;;;15.60;99.90;;;;;;5136420;27;20066;-67
2021/07/20 03:58:43;;;;;;;20.02;9.15;;;15.50;99.90;;;;;;5137162;27;20047;-66
2021/07/20 04:01:11;;;;;;;;;;;15.60;99.90;;;;;;5127744;28;20043;-66
2021/07/20 04:03:39;;;;;;;15.05;9.20;;;15.60;99.90;;;;;;5132979;27;19923;-66
2021/07/20 04:06:11;;;;;;;19.80;8.63;;;15.70;99.90;;;;;;5136646;28;20486;-67
2021/07/20 04:08:38;;;;;;;13.77;8.00;;;15.70;99.90;;;;;;5116647;28;20078;-67
2021/07/20 04:11:05;;;;;;;15.90;8.43;;;15.70;99.90;;;;;;5135998;28;20040;-66
2021/07/20 04:13:32;;;;;;;13.15;8.20;;;15.70;99.90;;;;;;5135462;28;20043;-67
2021/07/20 04:16:01;;;;;;;15.35;9.20;;;15.70;99.90;;;;;;5134307;28;20423;-67
2021/07/20 04:18:29;;;;;;;15.02;8.98;;;15.80;99.90;;;;;;5131130;28;20066;-67
2021/07/20 04:20:56;;;;;;;16.17;8.90;;;15.80;99.90;;;;;;5136414;28;20044;-67
2021/07/20 04:23:23;;;;;;;16.15;8.38;;;15.80;99.90;;;;;;5127373;28;20487;-67
2021/07/20 04:25:53;;;;;;;15.80;9.18;;;15.80;99.90;;;;;;5134075;28;20455;-66
2021/07/20 04:28:20;;;;;;;14.70;8.80;;;15.80;99.90;;;;;;5124882;28;20107;-66
2021/07/20 04:30:47;;;;;;;14.68;8.60;;;15.80;99.90;;;;;;5125759;28;20050;-67
2021/07/20 04:33:27;;;;;;;15.45;8.25;;;15.90;99.90;;;;;;5130194;28;20055;-67
2021/07/20 04:35:55;;;;;;;14.77;8.93;;;15.80;99.90;;;;;;5135322;28;20028;-67
2021/07/20 04:38:22;;;;;;;14.25;8.57;;;15.90;99.90;;;;;;5127370;28;20039;-67
2021/07/20 04:40:49;;;;;;;14.35;8.63;;;15.90;99.90;;;;;;5137441;28;20050;-67
2021/07/20 04:43:15;;;;;;;13.52;8.18;;;15.90;99.90;;;;;;5137981;28;20565;-67
2021/07/20 04:45:44;;;;;;;16.10;9.23;;;15.90;99.90;;;;;;5134889;28;20048;-67
2021/07/20 04:48:12;;;;;;;17.13;10.10;;;15.90;99.90;;;;;;5142672;28;20078;-66
2021/07/20 04:50:38;;;;;;;12.82;8.32;;;15.90;99.90;;;;;;5129129;28;20066;-67
2021/07/20 04:53:05;;;;;;;13.45;8.93;;;15.90;99.90;;;;;;5140672;28;20036;-67
2021/07/20 04:55:31;;;;;;;19.08;9.68;;;15.90;99.90;;;;;;5133382;28;20054;-66
2021/07/20 04:58:00;;;;;;;13.75;7.80;;;15.90;99.90;;;;;;5140932;28;20067;-67
2021/07/20 05:00:25;;;;;;;14.63;8.02;;;15.90;99.90;;;;;;5135302;27;20131;-67
2021/07/20 05:02:53;;;;;;;14.98;8.35;;;16.00;99.90;;;;;;5140242;27;20047;-66
2021/07/20 05:05:24;;;;;;;11.40;7.68;;;16.00;99.90;;;;;;5146123;27;20058;-67
2021/07/20 05:07:54;;;;;;;14.10;7.88;;;16.10;99.90;;;;;;5142438;27;20046;-67
2021/07/20 05:10:21;;;;;;;13.50;8.02;;;16.10;99.90;;;;;;5136059;27;20047;-67
2021/07/20 05:12:48;;;;;;;13.40;7.47;;;16.20;99.90;;;;;;5147648;27;20035;-67
2021/07/20 05:15:19;;;;;;;11.63;7.70;;;16.20;99.90;;;;;;5147383;27;21581;-67
2021/07/20 05:17:46;;;;;;;12.80;7.43;;;16.20;99.90;;;;;;5138418;27;20509;-67
2021/07/20 05:20:14;;;;;;;15.48;7.57;;;16.30;99.90;;;;;;5140527;27;20043;-67
2021/07/20 05:22:41;;;;;;;15.20;7.60;;;16.40;99.90;;;;;;5138342;27;20047;-67
2021/07/20 05:25:09;;;;;;;11.77;8.10;;;16.40;99.90;;;;;;5144812;27;20487;-66
2021/07/20 05:27:36;;;;;;;12.90;7.70;;;16.40;99.90;;;;;;5134909;27;20058;-67
2021/07/20 05:30:07;;;;;;;13.07;7.93;;;16.50;99.90;;;;;;5131457;27;20048;-67
2021/07/20 05:32:36;;;;;;;13.68;8.07;;;16.50;99.90;;;;;;5139343;27;20070;-67
2021/07/20 05:35:04;;;;;;;22.13;7.97;;;16.60;99.90;;;;;;5139596;27;20121;-67
2021/07/20 05:37:34;;;;;;;16.55;7.70;;;16.60;99.90;;;;;;5136496;27;20045;-67
2021/07/20 05:40:01;;;;;;;11.93;7.47;;;16.60;99.90;;;;;;5143812;27;20043;-66
2021/07/20 05:42:32;;;;;;;13.35;7.50;;;16.70;99.90;;;;;;5136204;27;20428;-67
2021/07/20 05:44:58;;;;;;;15.52;8.00;;;16.70;99.90;;;;;;5144120;27;20062;-67
2021/07/20 05:47:26;;;;;;;17.05;8.75;;;16.70;99.90;;;;;;5135768;27;20043;-67
2021/07/20 05:49:52;;;;;;;14.15;8.05;;;16.70;99.90;;;;;;5143083;27;20039;-66
2021/07/20 05:52:20;;;;;;;16.27;7.85;;;16.80;99.90;;;;;;5139297;27;20068;-67
2021/07/20 05:54:47;;;;;;;20.98;7.85;;;16.80;99.90;;;;;;5135135;27;20046;-67
2021/07/20 05:57:13;;;;;;;13.73;7.32;;;16.90;99.90;;;;;;5137427;27;20044;-67
2021/07/20 05:59:42;;;;;;;14.50;7.82;;;17.00;99.90;;;;;;5144091;27;20064;-66
2021/07/20 06:02:13;;;;;;;16.40;7.13;;;17.10;99.90;;;;;;5138650;27;20042;-66
2021/07/20 06:04:40;;;;;;;11.82;7.05;;;17.10;99.90;;;;;;5140101;27;20064;-66
2021/07/20 06:07:08;;;;;;;11.73;8.18;;;17.10;99.90;;;;;;5139510;27;20095;-66
2021/07/20 06:09:33;;;;;;;;;;;17.20;99.90;;;;;;5131759;27;20277;-66
2021/07/20 06:12:00;;;;;;;14.02;7.78;;;17.30;99.90;;;;;;5139474;27;20169;-66
2021/07/20 06:14:30;;;;;;;13.10;7.30;;;17.30;99.90;;;;;;5139559;27;20099;-66
2021/07/20 06:16:56;;;;;;;15.57;7.55;;;17.20;99.90;;;;;;5133153;27;20165;-66
2021/07/20 06:19:22;;;;;;;14.10;7.72;;;17.20;99.90;;;;;;5143211;27;20347;-66
2021/07/20 06:21:49;;;;;;;12.48;8.10;;;17.20;99.90;;;;;;5139247;27;20296;-67
2021/07/20 06:24:17;;;;;;;14.43;7.32;;;17.20;99.90;;;;;;5132041;27;20490;-66
2021/07/20 06:26:43;;;;;;;12.68;7.90;;;17.20;99.90;;;;;;5137909;27;20043;-66
2021/07/20 06:29:09;;;;;;;11.25;7.30;;;17.20;99.90;;;;;;5144420;27;20035;-66
2021/07/20 06:31:40;;;;;;;12.07;7.60;;;17.30;99.90;;;;;;5136594;27;20067;-67
2021/07/20 06:34:07;;;;;;;14.82;7.85;;;17.30;99.90;;;;;;5145891;27;20043;-66
2021/07/20 06:36:37;;;;;;;10.30;7.05;;;17.30;99.90;;;;;;5137074;27;20065;-66
2021/07/20 06:39:05;;;;;;;10.85;7.05;;;17.30;99.90;;;;;;5129618;27;20549;-66
2021/07/20 06:41:34;;;;;;;12.20;7.65;;;17.30;99.90;;;;;;5136914;27;20124;-67
2021/07/20 06:44:01;;;;;;;11.70;7.38;;;17.40;99.90;;;;;;5130514;27;20061;-67
2021/07/20 06:46:29;;;;;;;12.95;7.43;;;17.50;99.90;;;;;;5124881;27;20044;-66
2021/07/20 06:48:55;;;;;;;;;;;17.50;99.90;;;;;;5140667;27;20051;-66
2021/07/20 06:51:21;;;;;;;10.45;7.28;;;17.60;99.90;;;;;;5131858;27;20247;-67
2021/07/20 06:53:47;;;;;;;10.85;7.38;;;17.60;99.90;;;;;;5140546;27;20043;-66
2021/07/20 06:56:30;;;;;;;11.80;6.70;;;17.80;99.90;;;;;;5132196;27;20050;-66
2021/07/20 06:58:57;;;;;;;13.55;7.15;;;18.20;99.90;;;;;;5142531;27;20043;-66
2021/07/20 07:01:25;;;;;;;9.53;6.07;;;18.60;99.90;;;;;;5126360;27;20035;-66
2021/07/20 07:03:58;;;;;;;8.93;6.65;;;18.80;99.90;;;;;;5127192;27;20058;-65
2021/07/20 07:06:26;;;;;;;13.85;6.82;;;19.20;99.90;;;;;;5128953;27;20044;-65
2021/07/20 07:08:53;;;;;;;12.77;6.75;;;19.20;99.90;;;;;;5135993;27;20066;-65
2021/07/20 07:11:19;;;;;;;11.05;5.95;;;19.20;99.90;;;;;;5135125;27;20067;-66
2021/07/20 07:13:46;;;;;;;10.77;6.90;;;19.30;99.90;;;;;;5136741;27;20492;-66
2021/07/20 07:16:13;;;;;;;11.20;6.35;;;19.30;99.90;;;;;;5136527;27;20054;-66
2021/07/20 07:18:39;;;;;;;10.82;7.00;;;19.40;99.90;;;;;;5137784;27;20107;-65
2021/07/20 07:21:06;;;;;;;10.02;7.63;;;19.50;99.90;;;;;;5144760;27;20130;-65
2021/07/20 07:23:33;;;;;;;9.70;7.30;;;;;;;;;;5136073;27;20107;-65
2021/07/20 07:26:01;;;;;;;14.10;7.40;;;19.80;99.90;;;;;;5142166;27;20069;-66
2021/07/20 07:28:28;;;;;;;8.77;6.13;;;19.90;99.90;;;;;;5131143;27;20046;-66
2021/07/20 07:30:55;;;;;;;11.65;7.25;;;19.90;99.90;;;;;;5141535;27;20115;-67
2021/07/20 07:33:22;;;;;;;10.75;7.18;;;19.90;99.90;;;;;;5127574;27;20047;-66
2021/07/20 07:35:51;;;;;;;8.93;5.95;;;20.00;99.90;;;;;;5142863;27;20039;-67
2021/07/20 07:38:19;;;;;;;9.65;6.60;;;20.10;99.90;;;;;;5135857;27;20065;-66
2021/07/20 07:40:52;;;;;;;13.10;6.15;;;20.20;99.90;;;;;;5128144;27;20063;-67
2021/07/20 07:43:18;;;;;;;9.32;6.45;;;19.90;99.90;;;;;;5134644;27;20039;-66
2021/07/20 07:45:48;;;;;;;9.73;6.30;;;19.60;99.90;;;;;;5141480;27;20096;-66
2021/07/20 07:48:15;;;;;;;9.85;6.88;;;19.70;99.90;;;;;;5143405;27;20067;-66
2021/07/20 07:50:41;;;;;;;11.68;7.28;;;20.00;99.90;;;;;;5135610;27;20043;-66
2021/07/20 07:53:08;;;;;;;9.43;5.95;;;20.10;99.90;;;;;;5131946;27;20070;-67
2021/07/20 07:55:34;;;;;;;9.25;6.57;;;20.40;99.90;;;;;;5137016;27;20126;-66
2021/07/20 07:58:00;;;;;;;13.63;5.63;;;20.30;99.90;;;;;;5143680;27;20039;-66
2021/07/20 08:00:28;;;;;;;8.95;5.75;;;20.40;99.90;;;;;;5129036;27;20036;-66
2021/07/20 08:02:56;;;;;;;9.02;6.40;;;20.50;99.90;;;;;;5141716;27;20042;-66
2021/07/20 08:05:26;;;;;;;10.00;5.85;;;20.60;99.90;;;;;;5134782;28;20054;-66
2021/07/20 08:07:54;;;;;;;8.80;6.28;;;20.90;99.90;;;;;;5141919;28;20039;-66
2021/07/20 08:10:20;;;;;;;10.23;6.13;;;21.10;99.90;;;;;;5126592;28;20047;-66
2021/07/20 08:12:47;;;;;;;10.40;5.95;;;21.10;99.30;;;;;;5139520;28;20039;-66
2021/07/20 08:15:14;;;;;;;10.02;5.18;;;21.10;99.90;;;;;;5130002;28;20040;-66
2021/07/20 08:17:41;;;;;;;8.13;5.60;;;20.90;99.80;;;;;;5125739;28;20044;-66
2021/07/20 08:20:09;;;;;;;8.73;5.15;;;20.70;99.10;;;;;;5139570;28;20069;-66
2021/07/20 08:22:35;;;;;;;10.10;5.25;;;20.80;98.70;;;;;;5130592;28;20085;-66
2021/07/20 08:25:15;;;;;;;6.88;4.43;;;20.50;99.90;;;;;;5138621;28;20043;-66
2021/07/20 08:27:49;;;;;;;8.05;4.90;;;20.30;99.20;;;;;;5132541;28;20112;-66
2021/07/20 08:30:17;;;;;;;6.45;4.75;;;20.00;99.90;;;;;;5128272;28;20050;-66
2021/07/20 08:32:56;;;;;;;6.07;4.68;;;20.00;99.90;;;;;;5137474;28;20043;-66
2021/07/20 08:35:29;;;;;;;6.45;4.53;;;19.90;99.90;;;;;;5132960;27;20059;-66
2021/07/20 08:37:59;;;;;;;8.13;5.05;;;19.80;99.90;;;;;;5137089;27;20050;-66
2021/07/20 08:40:43;;;;;;;7.43;4.80;;;19.60;99.90;;;;;;5145595;27;20043;-66
2021/07/20 08:43:12;;;;;;;6.00;5.05;;;19.80;99.90;;;;;;5141437;27;20096;-66
2021/07/20 08:46:08;;;;;;;6.22;4.50;;;20.10;99.90;;;;;;5131929;27;20057;-66
2021/07/20 08:48:43;;;;;;;8.57;4.50;;;20.60;99.90;;;;;;5113875;27;20047;-66
2021/07/20 08:51:18;;;;;;;5.55;4.07;;;21.00;98.40;;;;;;5146974;27;20046;-66
2021/07/20 08:53:50;;;;;;;6.18;4.57;;;21.50;99.50;;;;;;5140977;27;20190;-66
2021/07/20 08:56:23;;;;;;;7.70;4.53;;;21.50;96.60;;;;;;5148429;27;20046;-66
2021/07/20 08:59:06;;;;;;;7.25;4.80;;;21.50;98.60;;;;;;5137818;27;20039;-66
2021/07/20 09:02:29;;;;;;;5.53;4.32;;;21.50;97.90;;;;;;5147759;27;20047;-66
2021/07/20 09:05:06;;;;;;;5.63;3.75;;;21.70;98.10;;;;;;5135545;27;20076;-65
2021/07/20 09:07:40;;;;;;;5.40;3.83;;;21.40;96.10;;;;;;5140465;27;20047;-66
2021/07/20 09:10:11;;;;;;;5.70;3.78;;;21.30;96.40;;;;;;5134930;27;20043;-66
2021/07/20 09:12:41;;;;;;;4.38;3.35;;;21.40;97.10;;;;;;5146805;27;20095;-66
2021/07/20 09:15:09;;;;;;;5.93;3.78;;;21.40;95.90;;;;;;5139934;27;20039;-66
2021/07/20 09:17:43;;;;;;;5.40;3.67;;;21.40;96.50;;;;;;5128062;28;20040;-66
2021/07/20 09:20:20;;;;;;;4.40;3.30;;;21.40;95.30;;;;;;5137426;27;20062;-66
2021/07/20 09:23:01;;;;;;;4.35;3.05;;;21.50;95.90;;;;;;5144702;27;20039;-66
2021/07/20 09:25:41;;;;;;;5.35;3.65;;;21.60;95.20;;;;;;5138792;27;20349;-66
2021/07/20 09:28:16;;;;;;;4.25;2.55;;;21.40;94.30;;;;;;5137606;27;20089;-66
2021/07/20 09:30:48;;;;;;;5.38;3.67;;;21.30;94.00;;;;;;5144910;27;20039;-66
2021/07/20 09:33:49;;;;;;;5.65;3.58;;;21.40;95.30;;;;;;5146905;27;20039;-65
2021/07/20 09:36:35;;;;;;;4.78;3.58;;;21.50;94.90;;;;;;5142688;27;20046;-66
2021/07/20 09:39:13;;;;;;;4.32;3.30;;;21.60;95.80;;;;;;5134051;27;20043;-65
2021/07/20 09:41:58;;;;;;;4.75;3.38;;;21.90;95.80;;;;;;5141334;27;20043;-66
2021/07/20 09:44:39;;;;;;;5.53;4.10;;;22.10;95.40;;;;;;5117865;27;20050;-65
2021/07/20 09:47:16;;;;;;;6.03;4.07;;;21.90;93.80;;;;;;5139820;27;20044;-66
2021/07/20 09:50:05;;;;;;;5.65;4.05;;;21.30;94.60;;;;;;5147698;27;20056;-66
2021/07/20 09:52:54;;;;;;;42.83;8.35;;;21.20;96.50;;;;;;5128018;27;20067;-65
2021/07/20 09:55:31;;;;;;;12.80;4.53;;;21.40;96.70;;;;;;5088026;27;20597;-65
2021/07/20 09:58:11;;;;;;;6.97;4.20;;;21.20;97.00;;;;;;5130817;27;20046;-66
2021/07/20 10:00:44;;;;;;;5.78;4.50;;;21.00;97.90;;;;;;5133410;27;20047;-65
2021/07/20 10:03:22;;;;;;;6.93;4.22;;;21.00;99.30;;;;;;5138991;27;20054;-66
2021/07/20 10:06:00;;;;;;;7.22;4.10;;;21.10;99.90;;;;;;5140944;27;20047;-66
2021/07/20 10:08:25;;;;;;;7.10;4.57;;;21.20;99.90;;;;;;5131994;27;20039;-66
2021/07/20 10:11:05;;;;;;;9.60;4.20;;;21.40;99.90;;;;;;5131332;27;20054;-66
2021/07/20 10:13:37;;;;;;;6.85;4.13;;;21.50;99.90;;;;;;5134170;27;20054;-66
2021/07/20 10:16:42;;;;;;;8.15;4.30;;;21.30;99.90;;;;;;5139749;27;20047;-66
2021/07/20 10:19:16;;;;;;;9.02;4.47;;;21.40;99.90;;;;;;5134548;27;20043;-66
2021/07/20 10:21:47;;;;;;;6.45;3.88;;;21.70;99.50;;;;;;5131014;27;20050;-66
2021/07/20 10:24:17;;;;;;;6.38;4.28;;;22.00;99.10;;;;;;5138526;27;20058;-65
2021/07/20 10:27:06;;;;;;;8.38;5.07;;;22.20;99.20;;;;;;5134976;27;20078;-65
2021/07/20 10:29:44;;;;;;;9.00;4.60;;;22.50;99.70;;;;;;5135810;27;20051;-66
2021/07/20 10:32:16;;;;;;;5.65;4.47;;;22.30;99.20;;;;;;5133552;27;20071;-65
2021/07/20 10:34:46;;;;;;;6.03;4.15;;;22.40;98.90;;;;;;5141739;27;20255;-65
2021/07/20 10:37:18;;;;;;;7.80;4.43;;;22.50;98.40;;;;;;5134513;27;20135;-65
2021/07/20 10:40:06;;;;;;;6.70;3.70;;;22.00;99.30;;;;;;5141371;27;20043;-65
2021/07/20 10:42:44;;;;;;;6.30;4.25;;;22.20;98.80;;;;;;5133274;27;20057;-65
2021/07/20 10:45:14;;;;;;;4.63;3.90;;;22.10;99.20;;;;;;5140440;27;20051;-65
2021/07/20 10:48:27;;;;;;;5.32;3.78;;;22.20;99.40;;;;;;5132877;27;20039;-65
2021/07/20 10:51:13;;;;;;;6.63;4.00;;;22.50;98.40;;;;;;5058218;28;20052;-65
2021/07/20 10:54:06;;;;;;;6.05;4.13;;;22.40;98.30;;;;;;5062418;28;20071;-65
2021/07/20 10:56:53;;;;;;;5.78;4.40;;;22.30;98.00;;;;;;5061317;28;20053;-66
2021/07/20 10:59:29;;;;;;;5.47;4.57;;;22.10;98.90;;;;;;5061195;28;20056;-66
2021/07/20 11:02:28;;;;;;;6.80;4.50;;;22.50;99.20;;;;;;5059999;28;20056;-66
2021/07/20 11:05:06;;;;;;;5.83;3.90;;;22.30;99.10;;;;;;5062118;28;20128;-66
2021/07/20 11:07:57;;;;;;;9.75;4.13;;;22.30;98.90;;;;;;5062209;28;20056;-66
2021/07/20 11:10:31;;;;;;;6.70;3.63;;;22.70;99.40;;;;;;5057208;28;20045;-65
2021/07/20 11:13:06;;;;;;;4.13;3.45;;;22.30;97.90;;;;;;5054045;28;20053;-66
2021/07/20 11:15:36;;;;;;;4.57;3.33;;;22.40;98.90;;;;;;5061360;28;20159;-65
2021/07/20 11:18:07;;;;;;;6.90;3.75;;;22.80;99.30;;;;;;5061942;28;20060;-65
2021/07/20 11:20:34;;;;;;;5.20;3.60;;;23.10;98.00;;;;;;5061487;28;20045;-65
2021/07/20 11:23:00;;;;;;;5.30;3.15;;;23.10;97.10;;;;;;5052243;28;20057;-65
2021/07/20 11:25:27;;;;;;;5.35;3.65;;;23.10;97.60;;;;;;5115250;27;20059;-65
2021/07/20 11:27:57;;;;;;;8.23;3.53;;;23.40;98.10;;;;;;5141299;27;20043;-65
2021/07/20 11:30:26;;;;;;;4.63;3.22;;;23.00;97.60;;;;;;5131596;27;20137;-65
2021/07/20 11:32:57;;;;;;;6.65;3.65;;;22.90;97.20;;;;;;5141213;27;20047;-65
2021/07/20 11:35:25;;;;;;;5.00;3.47;;;22.40;97.30;;;;;;5133876;27;20047;-65
2021/07/20 11:38:01;;;;;;;7.20;4.10;;;22.40;98.30;;;;;;5141291;27;20035;-65
2021/07/20 11:40:37;;;;;;;4.38;3.33;;;22.50;97.80;;;;;;5136995;27;20112;-66
2021/07/20 11:43:14;;;;;;;5.78;3.05;;;22.40;97.40;;;;;;5122597;27;20054;-66
2021/07/20 11:46:09;;;;;;;6.38;3.33;;;22.40;97.30;;;;;;5142405;27;20061;-66
2021/07/20 11:48:50;;;;;;;5.03;3.30;;;22.50;98.60;;;;;;5138610;27;20048;-66
2021/07/20 11:51:28;;;;;;;6.38;3.50;;;22.20;99.80;;;;;;5133622;27;20042;-65
2021/07/20 11:54:26;;;;;;;4.55;3.20;;;22.10;99.90;;;;;;5126539;27;20245;-65
2021/07/20 11:57:24;;;;;;;6.70;3.50;;;22.10;99.90;;;;;;5031788;28;20050;-66
2021/07/20 12:00:32;;;;;;;5.07;3.67;;;22.00;99.90;;;;;;5056949;28;20041;-66
2021/07/20 12:03:18;;;;;;;6.35;3.40;;;22.50;99.90;;;;;;5073337;28;20168;-66
2021/07/20 12:06:25;;;;;;;4.63;3.50;;;22.90;99.90;;;;;;5069648;28;20052;-66
2021/07/20 12:08:58;;;;;;;4.95;3.83;;;22.70;99.80;;;;;;4973390;28;20488;-67
2021/07/20 12:11:30;;;;;;;4.85;2.85;;;22.90;97.90;;;;;;4982535;28;20578;-66
2021/07/20 12:14:04;;;;;;;5.53;3.35;;;22.80;97.30;;;;;;4982911;28;20061;-66
2021/07/20 12:16:30;;;;;;;5.78;3.38;;;23.20;97.10;;;;;;4979912;28;20090;-65
2021/07/20 12:18:58;;;;;;;4.28;2.78;;;23.20;97.00;;;;;;4982549;28;20085;-66
2021/07/20 12:21:29;;;;;;;3.92;3.15;;;22.90;97.70;;;;;;4980205;28;20109;-65
2021/07/20 12:23:57;;;;;;;5.40;3.85;;;23.60;97.60;;;;;;4973326;28;20094;-65
2021/07/20 12:26:26;;;;;;;8.07;3.25;;;23.40;97.90;;;;;;4982479;28;20059;-65
2021/07/20 12:28:54;;;;;;;3.95;3.38;;;23.60;97.70;;;;;;4982665;28;20050;-65
2021/07/20 12:31:20;;;;;;;4.90;3.67;;;23.70;97.80;;;;;;4982720;28;20062;-65
2021/07/20 12:33:48;;;;;;;4.15;3.10;;;23.40;98.30;;;;;;5036194;28;20195;-65
2021/07/20 12:36:14;;;;;;;3.97;3.05;;;23.50;97.20;;;;;;5040879;28;20535;-65
2021/07/20 12:38:41;;;;;;;4.25;3.35;;;23.30;98.60;;;;;;5040810;28;20057;-65
2021/07/20 12:41:09;;;;;;;4.40;3.38;;;23.10;99.30;;;;;;5039616;28;20100;-65
2021/07/20 12:43:38;;;;;;;4.68;3.20;;;22.50;99.10;;;;;;5053176;28;20083;-65
2021/07/20 12:46:11;;;;;;;4.57;3.03;;;23.00;99.10;;;;;;5138820;28;20046;-65
2021/07/20 12:48:45;;;;;;;6.13;3.22;;;23.10;97.70;;;;;;5136279;28;20051;-66
2021/07/20 12:51:12;;;;;;;4.97;3.17;;;23.40;98.10;;;;;;5137385;28;20115;-66
2021/07/20 12:53:43;;;;;;;99.63;14.45;;;23.80;96.90;;;;;;5136539;28;20044;-65
2021/07/20 12:56:11;;;;;;;13.02;4.07;;;24.40;96.70;;;;;;5138075;28;20035;-64
2021/07/20 12:58:38;;;;;;;3.65;3.10;;;25.00;96.30;;;;;;5139214;28;20044;-65
2021/07/20 13:01:04;;;;;;;4.93;3.23;;;24.40;95.40;;;;;;5137925;28;20044;-65
2021/07/20 13:03:30;;;;;;;62.58;12.00;;;24.50;96.40;;;;;;5140275;28;20726;-64
2021/07/20 13:05:56;;;;;;;5.38;3.50;;;25.10;95.70;;;;;;5140144;28;20065;-65
2021/07/20 13:08:22;;;;;;;4.45;3.60;;;24.70;95.40;;;;;;5127187;28;20043;-65